createdAt,value
2019-05-21T00:07:02.698Z,1.57
2019-05-21T00:16:44.404Z,1.60
2019-05-21T00:19:29.795Z,1.70
2019-05-21T00:25:05.311Z,1.67
2019-05-21T00:27:48.274Z,2.30
2019-05-21T00:34:43.911Z,1.40
2019-05-21T00:47:59.710Z,1.23
2019-05-21T00:51:40.914Z,1.33
2019-05-21T00:53:37.662Z,1.07
2019-05-21T00:59:23.429Z,1.50
2019-05-21T01:05:26.240Z,1.00
2019-05-21T01:08:21.339Z,0.80
2019-05-21T01:21:15.605Z,1.10
2019-05-21T01:23:45.401Z,1.40
2019-05-21T01:26:35.509Z,1.50
2019-05-21T01:29:52.425Z,1.37
2019-05-21T01:33:08.822Z,1.20
2019-05-21T01:35:55.528Z,1.17
2019-05-21T01:38:41.717Z,1.13
2019-05-21T01:41:31.236Z,1.20
2019-05-21T01:44:17.694Z,1.47
2019-05-21T01:50:33.076Z,2.30
2019-05-21T01:53:30.249Z,1.00
2019-05-21T01:57:02.762Z,1.33
2019-05-21T01:59:13.697Z,1.20
2019-05-21T02:02:06.242Z,1.50
2019-05-21T02:04:42.411Z,1.20
2019-05-21T02:07:24.997Z,0.90
2019-05-21T02:10:17.960Z,1.10
2019-05-21T02:12:59.797Z,1.10
2019-05-21T02:18:38.256Z,2.33
2019-05-21T02:21:16.476Z,1.50
2019-05-21T02:23:50.174Z,1.40
2019-05-21T02:26:22.648Z,0.97
2019-05-21T02:28:56.590Z,1.23
2019-05-21T02:31:29.744Z,1.30
2019-05-21T02:34:03.652Z,2.17
2019-05-21T02:36:41.802Z,1.37
2019-05-21T02:39:18.973Z,1.57
2019-05-21T02:41:59.306Z,1.30
2019-05-21T02:44:32.703Z,1.67
2019-05-21T02:47:12.078Z,1.83
2019-05-21T02:49:46.620Z,1.43
2019-05-21T02:52:19.144Z,2.60
2019-05-21T02:54:57.708Z,1.40
2019-05-21T02:57:44.415Z,1.27
2019-05-21T03:04:00.080Z,0.90
2019-05-21T03:06:52.301Z,1.10
2019-05-21T03:09:26.325Z,1.20
2019-05-21T03:12:09.636Z,1.43
2019-05-21T03:14:42.796Z,1.43
2019-05-21T03:17:48.493Z,1.33
2019-05-21T03:20:29.235Z,1.23
2019-05-21T03:23:38.800Z,1.40
2019-05-21T03:25:59.350Z,1.10
2019-05-21T03:28:39.740Z,1.77
2019-05-21T03:31:18.439Z,1.07
2019-05-21T03:33:55.644Z,0.90
2019-05-21T03:36:40.230Z,1.60
2019-05-21T03:39:13.093Z,1.30
2019-05-21T03:41:49.629Z,1.47
2019-05-21T03:44:29.571Z,1.10
2019-05-21T03:47:02.698Z,1.00
2019-05-21T03:53:20.646Z,1.23
2019-05-21T03:59:03.602Z,1.60
2019-05-21T04:01:50.884Z,1.33
2019-05-21T04:05:11.429Z,1.43
2019-05-21T04:16:14.432Z,1.30
2019-05-21T04:17:29.046Z,1.57
2019-05-21T04:19:53.062Z,1.80
2019-05-21T04:22:35.977Z,1.87
2019-05-21T04:25:23.377Z,1.67
2019-05-21T04:28:08.668Z,2.70
2019-05-21T04:30:37.889Z,1.47
2019-05-21T04:33:19.393Z,1.27
2019-05-21T04:36:06.974Z,1.10
2019-05-21T04:38:35.205Z,1.10
2019-05-21T04:41:13.495Z,1.30
2019-05-21T04:43:55.270Z,1.30
2019-05-21T04:46:52.019Z,1.10
2019-05-21T04:56:42.869Z,1.40
2019-05-21T04:58:50.355Z,1.10
2019-05-21T05:04:27.790Z,1.60
2019-05-21T05:10:13.425Z,0.90
2019-05-21T05:12:54.559Z,1.27
2019-05-21T05:15:45.002Z,1.43
2019-05-21T05:21:35.833Z,0.90
2019-05-21T05:36:27.375Z,2.17
2019-05-21T05:39:19.208Z,1.50
2019-05-21T05:42:21.059Z,1.90
2019-05-21T05:45:04.810Z,1.73
2019-05-21T05:47:40.411Z,1.40
2019-05-21T05:51:00.220Z,1.60
2019-05-21T05:53:11.042Z,1.80
2019-05-21T05:55:46.846Z,1.77
2019-05-21T05:58:19.792Z,2.80
2019-05-21T06:00:58.112Z,1.90
2019-05-21T06:03:33.271Z,2.00
2019-05-21T06:06:09.644Z,1.50
2019-05-21T06:08:43.564Z,2.33
2019-05-21T06:14:17.161Z,3.33
2019-05-21T06:16:49.832Z,2.30
2019-05-21T06:19:34.562Z,3.00
2019-05-21T06:22:17.730Z,2.93
2019-05-21T06:24:50.057Z,3.20
2019-05-21T06:27:25.191Z,2.83
2019-05-21T06:33:53.958Z,2.40
2019-05-21T06:36:29.737Z,2.30
2019-05-21T06:39:06.181Z,3.67
2019-05-21T06:41:41.257Z,3.03
2019-05-21T06:44:16.479Z,3.37
2019-05-21T06:46:50.011Z,4.50
2019-05-21T06:49:27.134Z,3.93
2019-05-21T06:52:05.237Z,4.00
2019-05-21T06:54:45.933Z,4.00
2019-05-21T06:57:22.910Z,3.93
2019-05-21T07:00:10.774Z,3.40
2019-05-21T07:03:33.194Z,3.17
2019-05-21T07:06:14.090Z,2.30
2019-05-21T07:08:51.524Z,2.20
2019-05-21T07:11:32.930Z,1.77
2019-05-21T07:14:19.184Z,2.30
2019-05-21T07:17:00.078Z,2.50
2019-05-21T07:19:43.172Z,2.27
2019-05-21T07:22:22.835Z,1.57
2019-05-21T07:25:13.812Z,2.03
2019-05-21T07:27:52.317Z,1.30
2019-05-21T07:30:46.895Z,1.80
2019-05-21T07:36:49.295Z,1.60
2019-05-21T07:39:21.568Z,1.43
2019-05-21T07:41:59.471Z,1.27
2019-05-21T07:44:53.865Z,1.23
2019-05-21T07:50:46.235Z,1.30
2019-05-21T07:53:57.139Z,1.00
2019-05-21T07:56:40.103Z,1.00
2019-05-21T07:59:27.056Z,1.30
2019-05-21T08:05:21.528Z,1.30
2019-05-21T08:08:10.896Z,1.77
2019-05-21T08:11:20.765Z,1.67
2019-05-21T08:14:01.335Z,2.30
2019-05-21T08:16:53.962Z,1.40
2019-05-21T08:20:09.118Z,1.87
2019-05-21T08:22:44.793Z,1.60
2019-05-21T08:25:30.546Z,1.70
2019-05-21T08:28:22.509Z,2.07
2019-05-21T08:37:33.267Z,2.23
2019-05-21T08:43:42.944Z,2.30
2019-05-21T08:46:24.480Z,2.47
2019-05-21T08:49:09.548Z,2.30
2019-05-21T08:53:15.930Z,2.43
2019-05-21T09:01:11.530Z,3.00
2019-05-21T09:04:07.083Z,2.83
2019-05-21T09:06:55.626Z,2.50
2019-05-21T09:10:10.511Z,2.20
2019-05-21T09:13:17.744Z,1.77
2019-05-21T09:19:30.240Z,2.33
2019-05-21T09:31:13.763Z,3.47
2019-05-21T09:34:47.931Z,2.83
2019-05-21T09:37:37.787Z,4.00
2019-05-21T09:40:25.442Z,4.70
2019-05-21T09:46:15.708Z,3.10
2019-05-21T09:49:11.154Z,6.97
2019-05-21T09:52:20.861Z,7.27
2019-05-21T09:55:14.092Z,6.40
2019-05-21T09:58:48.601Z,4.33
2019-05-21T10:02:28.930Z,4.27
2019-05-21T10:07:39.959Z,6.90
2019-05-21T10:10:41.873Z,6.50
2019-05-21T10:19:51.922Z,2.57
2019-05-21T10:22:40.802Z,3.00
2019-05-21T10:26:43.112Z,3.90
2019-05-21T10:28:34.288Z,4.13
2019-05-21T10:31:14.887Z,2.90
2019-05-21T10:33:53.179Z,2.63
2019-05-21T10:36:33.017Z,1.80
2019-05-21T10:39:06.762Z,1.80
2019-05-21T10:44:48.322Z,1.70
2019-05-21T10:47:32.127Z,2.53
2019-05-21T10:50:12.603Z,2.03
2019-05-21T10:52:59.544Z,1.87
2019-05-21T10:55:42.645Z,2.37
2019-05-21T10:58:34.996Z,2.80
2019-05-21T11:01:24.068Z,2.77
2019-05-21T11:04:20.964Z,3.20
2019-05-21T11:07:05.524Z,2.30
2019-05-21T11:09:40.156Z,2.57
2019-05-21T11:12:22.003Z,1.77
2019-05-21T11:15:00.851Z,1.67
2019-05-21T11:17:53.620Z,1.50
2019-05-21T11:20:25.526Z,1.63
2019-05-21T11:23:01.818Z,1.80
2019-05-21T11:25:40.972Z,2.10
2019-05-21T11:28:16.979Z,2.10
2019-05-21T11:34:04.157Z,1.77
2019-05-21T11:36:40.635Z,2.40
2019-05-21T11:39:17.785Z,2.30
2019-05-21T11:41:56.796Z,1.40
2019-05-21T11:44:34.805Z,1.50
2019-05-21T11:47:07.990Z,1.30
2019-05-21T11:49:47.873Z,1.20
2019-05-21T11:52:20.519Z,1.13
2019-05-21T11:54:55.899Z,2.23
2019-05-21T11:57:29.241Z,1.20
2019-05-21T12:00:02.214Z,1.50
2019-05-21T12:02:35.216Z,1.30
2019-05-21T12:05:10.150Z,1.20
2019-05-21T12:07:58.153Z,2.50
2019-05-21T12:10:24.209Z,1.20
2019-05-21T12:12:57.059Z,1.43
2019-05-21T12:15:32.756Z,2.00
2019-05-21T12:18:05.788Z,1.43
2019-05-21T12:20:38.895Z,1.30
2019-05-21T12:23:11.996Z,1.50
2019-05-21T12:25:44.977Z,1.90
2019-05-21T12:28:17.813Z,2.23
2019-05-21T12:30:50.631Z,1.27
2019-05-21T12:33:23.819Z,1.40
2019-05-21T12:35:56.705Z,1.17
2019-05-21T12:38:30.884Z,1.57
2019-05-21T12:41:03.828Z,1.20
2019-05-21T12:43:36.935Z,1.20
2019-05-21T12:46:09.776Z,1.37
2019-05-21T12:48:42.892Z,1.30
2019-05-21T12:51:15.824Z,1.17
2019-05-21T12:53:48.807Z,1.17
2019-05-21T12:56:21.619Z,1.10
2019-05-21T12:58:54.866Z,1.17
2019-05-21T13:01:27.705Z,1.30
2019-05-21T13:04:02.753Z,1.60
2019-05-21T13:06:36.092Z,1.40
2019-05-21T13:09:10.854Z,1.00
2019-05-21T13:11:45.324Z,1.20
2019-05-21T13:14:20.560Z,0.90
2019-05-21T13:16:54.846Z,1.10
2019-05-21T13:19:29.133Z,0.90
2019-05-21T13:22:02.893Z,1.00
2019-05-21T13:24:39.865Z,1.30
2019-05-21T13:27:19.753Z,1.47
2019-05-21T13:29:52.564Z,1.13
2019-05-21T13:32:26.072Z,1.50
2019-05-21T13:34:58.916Z,1.40
2019-05-21T13:37:31.973Z,1.10
2019-05-21T13:40:08.266Z,1.40
2019-05-21T13:42:46.157Z,2.20
2019-05-21T13:45:25.871Z,1.07
2019-05-21T13:48:05.095Z,0.77
2019-05-21T13:50:33.125Z,1.87
2019-05-21T13:53:06.157Z,1.50
2019-05-21T13:58:40.640Z,1.23
2019-05-21T14:01:39.343Z,1.17
2019-05-21T14:04:04.527Z,1.57
2019-05-21T14:06:46.122Z,1.27
2019-05-21T14:09:33.343Z,1.40
2019-05-21T14:12:23.667Z,1.40
2019-05-21T14:14:52.387Z,1.50
2019-05-21T14:17:41.278Z,1.23
2019-05-21T14:20:22.118Z,1.20
2019-05-21T14:23:07.115Z,1.47
2019-05-21T14:25:49.543Z,1.20
2019-05-21T14:28:38.398Z,1.70
2019-05-21T14:31:12.088Z,1.23
2019-05-21T14:33:50.592Z,1.83
2019-05-21T14:36:30.874Z,1.33
2019-05-21T14:39:16.472Z,1.63
2019-05-21T14:42:02.187Z,1.10
2019-05-21T14:44:38.879Z,1.47
2019-05-21T14:47:27.819Z,1.13
2019-05-21T14:53:07.379Z,1.60
2019-05-21T14:55:43.669Z,1.60
2019-05-21T14:58:30.346Z,1.20
2019-05-21T15:01:03.581Z,1.27
2019-05-21T15:03:45.664Z,1.30
2019-05-21T15:06:21.857Z,1.53
2019-05-21T15:08:59.936Z,1.10
2019-05-21T15:11:38.748Z,1.43
2019-05-21T15:14:14.689Z,1.17
2019-05-21T15:16:55.962Z,1.10
2019-05-21T15:19:32.749Z,1.70
2019-05-21T15:22:12.083Z,1.37
2019-05-21T15:24:51.624Z,1.10
2019-05-21T15:27:35.057Z,1.30
2019-05-21T15:30:20.034Z,1.63
2019-05-21T15:33:01.283Z,2.17
2019-05-21T15:35:40.763Z,1.83
2019-05-21T15:38:19.244Z,1.10
2019-05-21T15:41:09.582Z,1.40
2019-05-21T15:43:33.263Z,1.57
2019-05-21T15:46:13.496Z,1.80
2019-05-21T15:49:00.093Z,1.30
2019-05-21T15:51:33.375Z,1.10
2019-05-21T15:54:07.674Z,1.33
2019-05-21T15:56:41.885Z,1.20
2019-05-21T15:59:16.323Z,1.30
2019-05-21T16:01:55.154Z,2.00
2019-05-21T16:04:28.505Z,1.37
2019-05-21T16:07:01.847Z,1.00
2019-05-21T16:09:34.754Z,1.00
2019-05-21T16:12:08.790Z,0.93
2019-05-21T16:14:44.556Z,1.37
2019-05-21T16:17:15.674Z,1.03
2019-05-21T16:19:48.595Z,1.00
2019-05-21T16:22:21.588Z,0.87
2019-05-21T16:24:55.991Z,1.10
2019-05-21T16:27:30.058Z,1.50
2019-05-21T16:30:03.010Z,1.63
2019-05-21T16:32:35.765Z,1.00
2019-05-21T16:35:10.093Z,1.30
2019-05-21T16:37:45.230Z,1.10
2019-05-21T16:40:19.206Z,1.03
2019-05-21T16:42:55.310Z,1.40
2019-05-21T16:45:31.180Z,0.90
2019-05-21T16:48:03.408Z,1.20
2019-05-21T16:50:36.585Z,1.10
2019-05-21T16:53:09.412Z,1.20
2019-05-21T16:55:42.854Z,1.20
2019-05-21T16:58:18.862Z,1.10
2019-05-21T17:00:54.737Z,0.80
2019-05-21T17:03:30.796Z,1.40
2019-05-21T17:06:04.149Z,1.00
2019-05-21T17:08:41.788Z,1.40
2019-05-21T17:11:20.878Z,1.70
2019-05-21T17:13:54.180Z,1.10
2019-05-21T17:16:27.895Z,1.20
2019-05-21T17:19:04.251Z,1.30
2019-05-21T17:21:41.960Z,1.20
2019-05-21T17:24:17.201Z,1.57
2019-05-21T17:26:51.649Z,1.00
2019-05-21T17:29:24.597Z,1.27
2019-05-21T17:31:57.569Z,2.00
2019-05-21T17:34:31.910Z,1.50
2019-05-21T17:37:06.118Z,1.20
2019-05-21T17:39:42.297Z,1.67
2019-05-21T17:42:16.024Z,1.60
2019-05-21T17:44:50.396Z,1.40
2019-05-21T17:47:32.574Z,1.50
2019-05-21T17:49:57.743Z,1.67
2019-05-21T17:52:30.781Z,1.27
2019-05-21T17:55:03.762Z,1.33
2019-05-21T17:57:37.715Z,1.30
2019-05-21T18:00:13.185Z,1.07
2019-05-21T18:02:45.970Z,1.27
2019-05-21T18:05:27.212Z,1.20
2019-05-21T18:08:06.719Z,1.30
2019-05-21T18:10:39.867Z,1.20
2019-05-21T18:13:23.767Z,0.97
2019-05-21T18:16:02.607Z,0.90
2019-05-21T18:18:37.262Z,1.40
2019-05-21T18:21:10.268Z,1.10
2019-05-21T18:23:45.440Z,1.13
2019-05-21T18:26:23.379Z,0.80
2019-05-21T18:28:57.908Z,1.00
2019-05-21T18:31:34.470Z,0.93
2019-05-21T18:34:08.663Z,0.90
2019-05-21T18:36:42.166Z,1.20
2019-05-21T18:39:17.714Z,0.93
2019-05-21T18:41:50.272Z,0.80
2019-05-21T18:44:23.269Z,1.10
2019-05-21T18:46:56.632Z,0.90
2019-05-21T18:49:29.311Z,0.90
2019-05-21T18:52:02.800Z,1.00
2019-05-21T18:54:35.365Z,0.90
2019-05-21T18:57:07.832Z,0.80
2019-05-21T18:59:40.669Z,0.97
2019-05-21T19:02:38.381Z,0.80
2019-05-21T19:05:11.291Z,0.87
2019-05-21T19:07:44.013Z,0.80
2019-05-21T19:16:48.094Z,1.03
2019-05-21T19:23:34.672Z,0.97
2019-05-21T19:26:58.391Z,2.00
2019-05-21T19:29:31.750Z,0.90
2019-05-21T19:53:13.419Z,2.07
2019-05-21T20:00:29.479Z,2.00
2019-05-21T20:02:53.782Z,1.70
2019-05-21T20:05:40.647Z,2.30
2019-05-21T20:08:19.378Z,1.43
2019-05-21T20:10:53.221Z,1.30
2019-05-21T20:13:32.850Z,1.30
2019-05-21T20:16:28.708Z,1.33
2019-05-21T20:19:06.337Z,1.23
2019-05-21T20:21:48.543Z,1.50
2019-05-21T20:24:22.611Z,1.37
2019-05-21T20:26:58.460Z,1.17
2019-05-21T20:29:40.817Z,1.73
2019-05-21T20:32:16.872Z,1.03
2019-05-21T20:42:04.903Z,1.40
2019-05-21T20:44:43.577Z,1.07
2019-05-21T20:47:20.819Z,1.07
2019-05-21T20:53:20.781Z,1.07
2019-05-21T20:55:56.531Z,1.20
2019-05-21T20:58:56.198Z,2.50
2019-05-21T21:01:12.931Z,1.10
2019-05-21T21:03:57.678Z,1.20
2019-05-21T21:06:37.695Z,1.50
2019-05-21T21:09:14.630Z,1.20
2019-05-21T21:15:01.904Z,1.80
2019-05-21T21:17:51.803Z,1.10
2019-05-21T21:20:43.951Z,0.93
2019-05-21T21:23:22.324Z,1.67
2019-05-21T21:26:18.061Z,1.33
2019-05-21T21:29:11.899Z,1.67
2019-05-21T21:31:55.587Z,0.80
2019-05-21T21:34:42.427Z,1.00
2019-05-21T21:37:17.279Z,1.43
2019-05-21T21:42:47.672Z,0.80
2019-05-21T21:45:26.827Z,1.00
2019-05-21T21:48:22.538Z,1.10
2019-05-21T21:51:07.049Z,1.17
2019-05-21T21:54:26.922Z,1.10
2019-05-21T22:06:13.389Z,1.10
2019-05-21T22:08:58.199Z,0.97
2019-05-21T22:12:44.895Z,1.03
2019-05-21T22:17:51.489Z,1.00
2019-05-21T22:20:39.666Z,0.83
2019-05-21T22:22:58.751Z,1.00
2019-05-21T22:26:00.926Z,1.20
2019-05-21T22:37:44.508Z,0.93
2019-05-21T22:47:01.360Z,0.70
2019-05-21T22:52:23.377Z,1.20
2019-05-21T22:58:39.463Z,1.00
2019-05-21T23:01:25.076Z,0.80
2019-05-21T23:04:08.284Z,1.63
2019-05-21T23:15:54.239Z,0.93
2019-05-21T23:18:50.948Z,1.10
2019-05-21T23:21:53.574Z,0.93
2019-05-21T23:24:25.712Z,0.80
2019-05-21T23:27:02.153Z,0.70
2019-05-21T23:29:57.014Z,1.13
2019-05-21T23:32:41.020Z,0.90
2019-05-21T23:35:38.301Z,1.00
2019-05-21T23:38:33.090Z,1.57
2019-05-21T23:44:30.924Z,0.90
2019-05-21T23:50:52.298Z,1.07
2019-05-21T23:54:56.321Z,1.00
